This is the latest recevied weather packets stored in our database for station/object KE5YIM-13. If no packets are shown the sender has not sent any weather packets the latest 10 day(s).
| Time | Temp. | Humidity | Pressure | Rain* | Wind** | Luminosity | Snow |
|---|---|---|---|---|---|---|---|
| 1777467137 | 13.33° C | 66% | 1017.1 hPa | 0 mm | - | 385 W/m² | - |
| 1777466834 | 13.33° C | 64% | 1017.3 hPa | 0 mm | - | 315 W/m² | - |
| 1777466532 | 13.33° C | 64% | 1017.3 hPa | 0 mm | - | 320 W/m² | - |
| 1777466229 | 12.78° C | 64% | 1017.3 hPa | 0 mm | - | 321 W/m² | - |
| 1777465924 | 12.78° C | 64% | 1017.5 hPa | 0 mm | - | 315 W/m² | - |
| 1777465621 | 12.22° C | 67% | 1017.6 hPa | 0 mm | - | 304 W/m² | - |
| 1777465316 | 11.67° C | 69% | 1017.2 hPa | 0 mm | - | 260 W/m² | - |
| 1777465010 | 11.67° C | 70% | 1017.5 hPa | 0 mm | - | 243 W/m² | - |
| 1777464705 | 11.67° C | 73% | 1017.5 hPa | 0 mm | - | 240 W/m² | - |
| 1777464403 | 10° C | 81% | 1017.5 hPa | 0 mm | - | 222 W/m² | - |
| 1777464098 | 10° C | 88% | 1017.8 hPa | 0 mm | - | 189 W/m² | - |
| 1777463798 | 9.44° C | 93% | 1018 hPa | 0 mm | - | 157 W/m² | - |
| 1777463493 | 8.33° C | 95% | 1018 hPa | 0 mm | - | 129 W/m² | - |
| 1777463189 | 7.78° C | 96% | 1018.2 hPa | 0 mm | - | 107 W/m² | - |
| 1777462885 | 7.22° C | 96% | 1018.4 hPa | 0 mm | - | 48 W/m² | - |
| 1777462582 | 6.67° C | 96% | 1018.2 hPa | 0 mm | - | 53 W/m² | - |
| 1777462277 | 6.67° C | 96% | 1018.6 hPa | 0 mm | - | 54 W/m² | - |
| 1777461973 | 6.67° C | 97% | 1018.3 hPa | 0 mm | - | 49 W/m² | - |
| 1777461670 | 6.67° C | 97% | 1018.2 hPa | 0 mm | - | 44 W/m² | - |
| 1777461370 | 6.11° C | 97% | 1018.1 hPa | 0 mm | - | 41 W/m² | - |
| 1777461067 | 6.11° C | 97% | 1018 hPa | 0 mm | - | 38 W/m² | - |
| 1777460762 | 6.11° C | 97% | 1017.9 hPa | 0 mm | - | 35 W/m² | - |
| 1777460458 | 6.11° C | 97% | 1018.2 hPa | 0 mm | - | 35 W/m² | - |
| 1777460154 | 6.11° C | 97% | 1018.5 hPa | 0 mm | - | 42 W/m² | - |
| 1777459852 | 6.11° C | 97% | 1018.3 hPa | 0 mm | - | 39 W/m² | - |
* Rain latest hour (hover to see other rain measurements)
** Current wind speed in m/s (hover to see current wind gust speed)